Adaven, Nevada
Current Conditions -  °F | °C
As of 3:56 PM on Wednesday 28 Jan 2015 (Local Time) from KTPH Reporting Station
Overcast Overcast  
Wind Chill: 51°   Ceiling: 5500
Heat Index: 51°   Visibility: 10mi
Dew Point: 34°   Wind: 8mph
Humidity: 52%   Direction: 320°NW
Pressure: 30.25"   Gusts: NA
Location:  38.13°N, 115.6°W
Report Text: KTPH 282356Z AUTO 32007KT 10SM OVC055 11/01 A3025 RMK AO2 SLP236 T01060011 10117 20039 55004
Loading
Personal Weather Stations






























Interactive Weather Map New forecast layout! Learn more

10-Day Weather Forecast

Advertisements
Track Severe Weather on mobile